sensor_id;sensor_type;location;lat;lon;timestamp;pressure;altitude;pressure_sealevel;temperature;humidity
33781;BME280;20097;50.832;19.100;2023-02-15T00:02:04;99984.44;;;3.24;100.00
33781;BME280;20097;50.832;19.100;2023-02-15T00:07:09;99989.94;;;3.18;100.00
33781;BME280;20097;50.832;19.100;2023-02-15T00:12:15;99981.47;;;3.16;100.00
33781;BME280;20097;50.832;19.100;2023-02-15T00:17:21;99978.66;;;3.20;100.00
33781;BME280;20097;50.832;19.100;2023-02-15T00:22:25;99973.97;;;3.11;100.00
33781;BME280;20097;50.832;19.100;2023-02-15T00:27:30;99963.09;;;3.06;100.00
33781;BME280;20097;50.832;19.100;2023-02-15T00:32:36;99953.47;;;2.94;100.00
33781;BME280;20097;50.832;19.100;2023-02-15T00:37:40;99946.84;;;3.04;100.00
33781;BME280;20097;50.832;19.100;2023-02-15T00:42:45;99952.28;;;3.00;100.00
33781;BME280;20097;50.832;19.100;2023-02-15T00:47:51;99947.59;;;3.06;100.00
33781;BME280;20097;50.832;19.100;2023-02-15T00:52:56;99940.81;;;3.05;100.00
33781;BME280;20097;50.832;19.100;2023-02-15T00:58:01;99931.47;;;3.03;100.00
33781;BME280;20097;50.832;19.100;2023-02-15T01:03:08;99933.81;;;3.07;100.00
33781;BME280;20097;50.832;19.100;2023-02-15T01:08:12;99914.81;;;3.08;100.00
33781;BME280;20097;50.832;19.100;2023-02-15T01:13:17;99919.16;;;3.08;100.00
33781;BME280;20097;50.832;19.100;2023-02-15T01:18:23;99917.72;;;3.18;100.00
33781;BME280;20097;50.832;19.100;2023-02-15T01:23:27;99907.84;;;3.10;100.00
33781;BME280;20097;50.832;19.100;2023-02-15T01:28:32;99906.16;;;3.09;100.00
33781;BME280;20097;50.832;19.100;2023-02-15T01:33:38;99903.75;;;3.06;100.00
33781;BME280;20097;50.832;19.100;2023-02-15T01:38:45;99902.09;;;3.05;100.00
33781;BME280;20097;50.832;19.100;2023-02-15T01:43:52;99892.63;;;3.06;100.00
33781;BME280;20097;50.832;19.100;2023-02-15T01:49:03;99885.22;;;3.00;100.00
33781;BME280;20097;50.832;19.100;2023-02-15T01:54:17;99871.16;;;3.05;100.00
33781;BME280;20097;50.832;19.100;2023-02-15T01:59:24;99867.25;;;2.98;100.00
33781;BME280;20097;50.832;19.100;2023-02-15T02:04:37;99854.63;;;2.94;100.00
33781;BME280;20097;50.832;19.100;2023-02-15T02:09:44;99848.94;;;3.03;100.00
33781;BME280;20097;50.832;19.100;2023-02-15T02:14:50;99854.94;;;3.03;100.00
33781;BME280;20097;50.832;19.100;2023-02-15T02:20:27;99849.78;;;3.03;100.00
33781;BME280;20097;50.832;19.100;2023-02-15T02:26:30;99831.25;;;2.97;100.00
33781;BME280;20097;50.832;19.100;2023-02-15T02:32:15;99828.56;;;2.98;100.00
33781;BME280;20097;50.832;19.100;2023-02-15T02:37:28;99835.91;;;2.90;100.00
33781;BME280;20097;50.832;19.100;2023-02-15T02:42:39;99824.22;;;2.85;100.00
33781;BME280;20097;50.832;19.100;2023-02-15T02:47:47;99835.03;;;2.91;100.00
33781;BME280;20097;50.832;19.100;2023-02-15T02:52:56;99825.19;;;2.98;100.00
33781;BME280;20097;50.832;19.100;2023-02-15T02:58:05;99828.22;;;3.04;100.00
33781;BME280;20097;50.832;19.100;2023-02-15T03:03:14;99827.34;;;2.90;100.00
33781;BME280;20097;50.832;19.100;2023-02-15T03:08:26;99825.13;;;2.83;100.00
33781;BME280;20097;50.832;19.100;2023-02-15T03:13:33;99822.84;;;2.93;100.00
33781;BME280;20097;50.832;19.100;2023-02-15T03:18:44;99820.25;;;2.93;100.00
33781;BME280;20097;50.832;19.100;2023-02-15T03:24:03;99828.47;;;3.00;100.00
33781;BME280;20097;50.832;19.100;2023-02-15T03:29:09;99821.50;;;3.02;100.00
33781;BME280;20097;50.832;19.100;2023-02-15T03:34:15;99825.34;;;2.95;100.00
33781;BME280;20097;50.832;19.100;2023-02-15T03:39:30;99821.00;;;2.95;100.00
33781;BME280;20097;50.832;19.100;2023-02-15T03:44:49;99836.66;;;2.92;100.00
33781;BME280;20097;50.832;19.100;2023-02-15T03:49:59;99837.34;;;2.80;100.00
33781;BME280;20097;50.832;19.100;2023-02-15T03:55:06;99843.66;;;2.90;100.00
33781;BME280;20097;50.832;19.100;2023-02-15T04:00:15;99848.06;;;2.58;100.00
33781;BME280;20097;50.832;19.100;2023-02-15T04:05:38;99836.88;;;2.73;100.00
33781;BME280;20097;50.832;19.100;2023-02-15T04:10:44;99845.06;;;2.66;100.00
33781;BME280;20097;50.832;19.100;2023-02-15T04:16:01;99844.53;;;2.75;100.00
33781;BME280;20097;50.832;19.100;2023-02-15T04:21:12;99839.25;;;2.62;100.00
33781;BME280;20097;50.832;19.100;2023-02-15T04:26:36;99845.59;;;2.57;100.00
33781;BME280;20097;50.832;19.100;2023-02-15T04:31:41;99835.50;;;2.52;100.00
33781;BME280;20097;50.832;19.100;2023-02-15T04:36:46;99835.50;;;2.52;100.00
33781;BME280;20097;50.832;19.100;2023-02-15T04:41:52;99838.75;;;2.56;100.00
33781;BME280;20097;50.832;19.100;2023-02-15T04:46:56;99834.84;;;2.49;100.00
33781;BME280;20097;50.832;19.100;2023-02-15T04:52:01;99833.41;;;2.59;100.00
33781;BME280;20097;50.832;19.100;2023-02-15T04:57:06;99833.09;;;2.65;100.00
33781;BME280;20097;50.832;19.100;2023-02-15T05:02:11;99833.03;;;2.51;100.00
33781;BME280;20097;50.832;19.100;2023-02-15T05:07:15;99836.13;;;2.42;100.00
33781;BME280;20097;50.832;19.100;2023-02-15T05:12:22;99834.84;;;2.49;100.00
33781;BME280;20097;50.832;19.100;2023-02-15T05:17:26;99836.13;;;2.26;100.00
33781;BME280;20097;50.832;19.100;2023-02-15T05:22:31;99839.38;;;2.14;100.00
33781;BME280;20097;50.832;19.100;2023-02-15T05:27:37;99826.84;;;2.24;100.00
33781;BME280;20097;50.832;19.100;2023-02-15T05:32:59;99824.16;;;2.25;100.00
33781;BME280;20097;50.832;19.100;2023-02-15T05:38:03;99822.91;;;2.17;100.00
33781;BME280;20097;50.832;19.100;2023-02-15T05:43:09;99816.78;;;2.04;100.00
33781;BME280;20097;50.832;19.100;2023-02-15T05:48:14;99806.56;;;2.02;100.00
33781;BME280;20097;50.832;19.100;2023-02-15T05:53:18;99815.13;;;2.03;100.00
33781;BME280;20097;50.832;19.100;2023-02-15T05:58:24;99818.53;;;2.03;100.00
33781;BME280;20097;50.832;19.100;2023-02-15T06:03:29;99822.34;;;2.12;100.00
33781;BME280;20097;50.832;19.100;2023-02-15T06:08:34;99826.59;;;2.13;100.00
33781;BME280;20097;50.832;19.100;2023-02-15T06:13:43;99828.41;;;1.95;100.00
33781;BME280;20097;50.832;19.100;2023-02-15T06:18:47;99826.00;;;1.92;100.00
33781;BME280;20097;50.832;19.100;2023-02-15T06:23:55;99826.66;;;1.96;100.00
33781;BME280;20097;50.832;19.100;2023-02-15T06:29:01;99818.34;;;1.91;100.00
33781;BME280;20097;50.832;19.100;2023-02-15T06:34:06;99826.50;;;1.99;100.00
33781;BME280;20097;50.832;19.100;2023-02-15T06:39:11;99828.66;;;1.91;100.00
33781;BME280;20097;50.832;19.100;2023-02-15T06:44:17;99820.25;;;1.87;100.00
33781;BME280;20097;50.832;19.100;2023-02-15T06:49:21;99821.84;;;1.90;100.00
33781;BME280;20097;50.832;19.100;2023-02-15T06:54:25;99823.25;;;1.95;100.00
33781;BME280;20097;50.832;19.100;2023-02-15T06:59:31;99822.44;;;2.10;100.00
33781;BME280;20097;50.832;19.100;2023-02-15T07:04:35;99824.66;;;2.16;100.00
33781;BME280;20097;50.832;19.100;2023-02-15T07:09:40;99813.38;;;2.19;100.00
33781;BME280;20097;50.832;19.100;2023-02-15T07:14:46;99807.88;;;2.25;100.00
33781;BME280;20097;50.832;19.100;2023-02-15T07:19:50;99816.03;;;2.17;100.00
33781;BME280;20097;50.832;19.100;2023-02-15T07:24:55;99810.13;;;2.15;100.00
33781;BME280;20097;50.832;19.100;2023-02-15T07:30:01;99807.63;;;2.14;100.00
33781;BME280;20097;50.832;19.100;2023-02-15T07:35:07;99805.97;;;1.97;100.00
33781;BME280;20097;50.832;19.100;2023-02-15T07:40:12;99805.56;;;1.89;100.00
33781;BME280;20097;50.832;19.100;2023-02-15T07:45:18;99808.97;;;1.90;100.00
33781;BME280;20097;50.832;19.100;2023-02-15T07:50:23;99796.94;;;1.90;100.00
33781;BME280;20097;50.832;19.100;2023-02-15T07:55:27;99798.91;;;2.01;100.00
33781;BME280;20097;50.832;19.100;2023-02-15T08:00:33;99782.88;;;1.96;100.00
33781;BME280;20097;50.832;19.100;2023-02-15T08:05:59;99786.13;;;1.99;100.00
33781;BME280;20097;50.832;19.100;2023-02-15T08:11:07;99776.91;;;2.11;100.00
33781;BME280;20097;50.832;19.100;2023-02-15T08:16:35;99770.16;;;2.08;100.00
33781;BME280;20097;50.832;19.100;2023-02-15T08:21:43;99770.25;;;2.07;100.00
33781;BME280;20097;50.832;19.100;2023-02-15T08:26:48;99768.41;;;2.24;100.00
33781;BME280;20097;50.832;19.100;2023-02-15T08:31:56;99767.53;;;2.10;100.00
33781;BME280;20097;50.832;19.100;2023-02-15T08:37:02;99769.84;;;2.14;100.00
33781;BME280;20097;50.832;19.100;2023-02-15T08:42:07;99763.50;;;2.20;100.00
33781;BME280;20097;50.832;19.100;2023-02-15T08:47:13;99761.09;;;2.32;100.00
33781;BME280;20097;50.832;19.100;2023-02-15T08:52:20;99755.72;;;2.51;100.00
33781;BME280;20097;50.832;19.100;2023-02-15T08:57:24;99758.06;;;2.40;100.00
33781;BME280;20097;50.832;19.100;2023-02-15T09:02:30;99751.38;;;2.37;100.00
33781;BME280;20097;50.832;19.100;2023-02-15T09:07:34;99745.28;;;2.38;100.00
33781;BME280;20097;50.832;19.100;2023-02-15T09:12:39;99747.66;;;2.57;100.00
33781;BME280;20097;50.832;19.100;2023-02-15T09:17:47;99730.63;;;2.68;100.00
33781;BME280;20097;50.832;19.100;2023-02-15T09:22:52;99739.91;;;2.57;100.00
33781;BME280;20097;50.832;19.100;2023-02-15T09:28:00;99740.25;;;2.51;100.00
33781;BME280;20097;50.832;19.100;2023-02-15T09:33:06;99733.75;;;2.59;100.00
33781;BME280;20097;50.832;19.100;2023-02-15T09:38:10;99738.38;;;2.83;100.00
33781;BME280;20097;50.832;19.100;2023-02-15T09:43:27;99729.63;;;2.71;100.00
33781;BME280;20097;50.832;19.100;2023-02-15T09:48:41;99730.94;;;2.78;100.00
33781;BME280;20097;50.832;19.100;2023-02-15T09:54:03;99728.97;;;2.81;100.00
33781;BME280;20097;50.832;19.100;2023-02-15T09:59:23;99721.84;;;3.01;100.00
33781;BME280;20097;50.832;19.100;2023-02-15T10:04:51;99711.63;;;2.99;100.00
33781;BME280;20097;50.832;19.100;2023-02-15T10:10:11;99709.94;;;3.12;100.00
33781;BME280;20097;50.832;19.100;2023-02-15T10:15:37;99705.13;;;3.34;100.00
33781;BME280;20097;50.832;19.100;2023-02-15T10:20:55;99691.88;;;3.67;100.00
33781;BME280;20097;50.832;19.100;2023-02-15T10:26:11;99689.94;;;3.97;100.00
33781;BME280;20097;50.832;19.100;2023-02-15T10:31:25;99692.22;;;4.01;100.00
33781;BME280;20097;50.832;19.100;2023-02-15T10:37:01;99685.38;;;4.40;100.00
33781;BME280;20097;50.832;19.100;2023-02-15T10:42:17;99670.09;;;4.37;100.00
33781;BME280;20097;50.832;19.100;2023-02-15T10:48:00;99668.03;;;4.54;100.00
33781;BME280;20097;50.832;19.100;2023-02-15T10:53:43;99670.00;;;4.76;100.00
33781;BME280;20097;50.832;19.100;2023-02-15T10:59:29;99661.00;;;4.69;100.00
33781;BME280;20097;50.832;19.100;2023-02-15T11:05:02;99656.78;;;4.68;100.00
33781;BME280;20097;50.832;19.100;2023-02-15T11:10:27;99650.66;;;4.69;100.00
33781;BME280;20097;50.832;19.100;2023-02-15T11:15:36;99643.94;;;4.79;100.00
33781;BME280;20097;50.832;19.100;2023-02-15T11:20:49;99638.34;;;4.85;100.00
33781;BME280;20097;50.832;19.100;2023-02-15T11:26:01;99626.97;;;4.87;100.00
33781;BME280;20097;50.832;19.100;2023-02-15T11:31:15;99625.78;;;5.16;100.00
33781;BME280;20097;50.832;19.100;2023-02-15T11:36:22;99608.50;;;5.17;100.00
33781;BME280;20097;50.832;19.100;2023-02-15T11:41:34;99593.97;;;5.50;100.00
33781;BME280;20097;50.832;19.100;2023-02-15T11:46:41;99588.06;;;5.72;100.00
33781;BME280;20097;50.832;19.100;2023-02-15T11:51:45;99587.91;;;5.86;100.00
33781;BME280;20097;50.832;19.100;2023-02-15T11:56:52;99579.25;;;6.09;100.00
33781;BME280;20097;50.832;19.100;2023-02-15T12:01:57;99569.03;;;6.30;100.00
33781;BME280;20097;50.832;19.100;2023-02-15T12:07:09;99564.50;;;6.66;100.00
33781;BME280;20097;50.832;19.100;2023-02-15T12:12:25;99556.88;;;7.08;100.00
33781;BME280;20097;50.832;19.100;2023-02-15T12:17:33;99540.38;;;7.09;100.00
33781;BME280;20097;50.832;19.100;2023-02-15T12:22:41;99538.00;;;7.48;100.00
33781;BME280;20097;50.832;19.100;2023-02-15T12:27:51;99526.25;;;7.65;100.00
33781;BME280;20097;50.832;19.100;2023-02-15T12:32:59;99534.75;;;7.87;99.40
33781;BME280;20097;50.832;19.100;2023-02-15T12:38:23;99532.41;;;7.64;97.74
33781;BME280;20097;50.832;19.100;2023-02-15T12:43:34;99528.38;;;7.71;98.72
33781;BME280;20097;50.832;19.100;2023-02-15T12:48:38;99515.94;;;7.95;98.51
33781;BME280;20097;50.832;19.100;2023-02-15T12:53:43;99515.53;;;8.20;96.57
33781;BME280;20097;50.832;19.100;2023-02-15T12:59:05;99512.06;;;8.30;94.39
33781;BME280;20097;50.832;19.100;2023-02-15T13:04:21;99485.78;;;8.33;92.21
33781;BME280;20097;50.832;19.100;2023-02-15T13:09:37;99491.84;;;8.44;93.39
33781;BME280;20097;50.832;19.100;2023-02-15T13:14:46;99498.47;;;8.57;90.86
33781;BME280;20097;50.832;19.100;2023-02-15T13:19:54;99488.47;;;8.62;91.51
33781;BME280;20097;50.832;19.100;2023-02-15T13:25:04;99478.53;;;8.77;88.93
33781;BME280;20097;50.832;19.100;2023-02-15T13:30:26;99478.53;;;8.77;87.47
33781;BME280;20097;50.832;19.100;2023-02-15T13:35:39;99472.94;;;8.81;85.24
33781;BME280;20097;50.832;19.100;2023-02-15T13:40:53;99465.66;;;8.85;85.33
33781;BME280;20097;50.832;19.100;2023-02-15T13:46:15;99449.25;;;8.84;86.23
33781;BME280;20097;50.832;19.100;2023-02-15T13:51:27;99460.00;;;8.70;85.77
33781;BME280;20097;50.832;19.100;2023-02-15T13:56:54;99449.72;;;8.59;84.77
33781;BME280;20097;50.832;19.100;2023-02-15T14:02:38;99443.44;;;8.62;87.44
33781;BME280;20097;50.832;19.100;2023-02-15T14:07:56;99447.81;;;8.61;87.21
33781;BME280;20097;50.832;19.100;2023-02-15T14:13:50;99446.28;;;8.59;84.52
33781;BME280;20097;50.832;19.100;2023-02-15T14:19:13;99436.34;;;8.83;85.15
33781;BME280;20097;50.832;19.100;2023-02-15T14:24:30;99427.34;;;9.15;81.12
33781;BME280;20097;50.832;19.100;2023-02-15T14:29:47;99431.16;;;9.30;79.64
33781;BME280;20097;50.832;19.100;2023-02-15T14:34:57;99423.75;;;9.54;75.46
33781;BME280;20097;50.832;19.100;2023-02-15T14:40:08;99428.97;;;9.54;73.62
33781;BME280;20097;50.832;19.100;2023-02-15T14:45:40;99423.47;;;9.38;73.90
33781;BME280;20097;50.832;19.100;2023-02-15T14:50:48;99424.72;;;9.25;73.26
33781;BME280;20097;50.832;19.100;2023-02-15T14:56:23;99411.44;;;8.99;75.69
33781;BME280;20097;50.832;19.100;2023-02-15T15:01:31;99408.28;;;8.86;75.67
33781;BME280;20097;50.832;19.100;2023-02-15T15:06:42;99404.53;;;8.60;76.72
33781;BME280;20097;50.832;19.100;2023-02-15T15:11:49;99393.41;;;8.49;76.84
33781;BME280;20097;50.832;19.100;2023-02-15T15:16:54;99399.81;;;8.35;78.18
33781;BME280;20097;50.832;19.100;2023-02-15T15:22:04;99398.06;;;8.15;79.32
33781;BME280;20097;50.832;19.100;2023-02-15T15:27:52;99395.25;;;7.97;80.22
33781;BME280;20097;50.832;19.100;2023-02-15T15:33:04;99390.53;;;7.82;81.23
33781;BME280;20097;50.832;19.100;2023-02-15T15:38:33;99387.72;;;7.64;82.85
33781;BME280;20097;50.832;19.100;2023-02-15T15:44:42;99388.59;;;7.13;87.68
33781;BME280;20097;50.832;19.100;2023-02-15T15:49:55;99381.72;;;6.59;90.57
33781;BME280;20097;50.832;19.100;2023-02-15T15:55:14;99385.09;;;6.17;94.17
33781;BME280;20097;50.832;19.100;2023-02-15T16:00:36;99377.53;;;5.70;97.59
33781;BME280;20097;50.832;19.100;2023-02-15T16:05:43;99387.88;;;5.48;100.00
33781;BME280;20097;50.832;19.100;2023-02-15T16:10:49;99382.03;;;5.22;100.00
33781;BME280;20097;50.832;19.100;2023-02-15T16:15:55;99384.09;;;5.06;100.00
33781;BME280;20097;50.832;19.100;2023-02-15T16:21:01;99383.81;;;4.87;100.00
33781;BME280;20097;50.832;19.100;2023-02-15T16:26:13;99378.50;;;4.65;100.00
33781;BME280;20097;50.832;19.100;2023-02-15T16:31:23;99370.47;;;4.34;100.00
33781;BME280;20097;50.832;19.100;2023-02-15T16:36:28;99376.09;;;4.15;100.00
33781;BME280;20097;50.832;19.100;2023-02-15T16:41:34;99366.34;;;3.95;100.00
33781;BME280;20097;50.832;19.100;2023-02-15T16:46:44;99363.25;;;3.90;100.00
33781;BME280;20097;50.832;19.100;2023-02-15T16:51:56;99364.84;;;3.67;100.00
33781;BME280;20097;50.832;19.100;2023-02-15T16:57:03;99361.13;;;3.46;100.00
33781;BME280;20097;50.832;19.100;2023-02-15T17:02:15;99359.66;;;3.30;100.00
33781;BME280;20097;50.832;19.100;2023-02-15T17:07:42;99364.47;;;3.09;100.00
33781;BME280;20097;50.832;19.100;2023-02-15T17:12:52;99363.78;;;3.07;100.00
33781;BME280;20097;50.832;19.100;2023-02-15T17:18:04;99364.06;;;3.03;100.00
33781;BME280;20097;50.832;19.100;2023-02-15T17:23:23;99353.28;;;2.83;100.00
33781;BME280;20097;50.832;19.100;2023-02-15T17:28:32;99356.56;;;2.73;100.00
33781;BME280;20097;50.832;19.100;2023-02-15T17:33:37;99355.06;;;2.56;100.00
33781;BME280;20097;50.832;19.100;2023-02-15T17:39:04;99348.94;;;2.45;100.00
33781;BME280;20097;50.832;19.100;2023-02-15T17:44:10;99336.19;;;2.29;100.00
33781;BME280;20097;50.832;19.100;2023-02-15T17:49:24;99338.88;;;2.28;100.00
33781;BME280;20097;50.832;19.100;2023-02-15T17:54:31;99330.59;;;2.23;100.00
33781;BME280;20097;50.832;19.100;2023-02-15T17:59:54;99325.50;;;2.09;100.00
33781;BME280;20097;50.832;19.100;2023-02-15T18:05:17;99332.47;;;2.07;100.00
33781;BME280;20097;50.832;19.100;2023-02-15T18:10:38;99342.81;;;1.93;100.00
33781;BME280;20097;50.832;19.100;2023-02-15T18:16:02;99341.19;;;1.92;100.00
33781;BME280;20097;50.832;19.100;2023-02-15T18:21:07;99330.75;;;2.07;100.00
33781;BME280;20097;50.832;19.100;2023-02-15T18:26:19;99331.72;;;2.19;100.00
33781;BME280;20097;50.832;19.100;2023-02-15T18:31:25;99328.84;;;2.23;100.00
33781;BME280;20097;50.832;19.100;2023-02-15T18:36:32;99325.09;;;2.29;100.00
33781;BME280;20097;50.832;19.100;2023-02-15T18:41:37;99321.38;;;2.33;100.00
33781;BME280;20097;50.832;19.100;2023-02-15T18:46:45;99321.19;;;2.36;100.00
33781;BME280;20097;50.832;19.100;2023-02-15T18:51:49;99324.50;;;2.38;100.00
33781;BME280;20097;50.832;19.100;2023-02-15T18:56:57;99313.81;;;2.44;100.00
33781;BME280;20097;50.832;19.100;2023-02-15T19:02:11;99295.03;;;2.42;100.00
33781;BME280;20097;50.832;19.100;2023-02-15T19:07:19;99295.69;;;2.45;100.00
33781;BME280;20097;50.832;19.100;2023-02-15T19:12:25;99289.59;;;2.46;100.00
33781;BME280;20097;50.832;19.100;2023-02-15T19:17:33;99285.47;;;2.44;100.00
33781;BME280;20097;50.832;19.100;2023-02-15T19:22:38;99282.91;;;2.44;100.00
33781;BME280;20097;50.832;19.100;2023-02-15T19:27:43;99277.00;;;2.42;100.00
33781;BME280;20097;50.832;19.100;2023-02-15T19:32:50;99258.25;;;2.40;100.00
33781;BME280;20097;50.832;19.100;2023-02-15T19:37:57;99255.88;;;2.37;100.00
33781;BME280;20097;50.832;19.100;2023-02-15T19:43:05;99261.75;;;2.39;100.00
33781;BME280;20097;50.832;19.100;2023-02-15T19:48:12;99257.59;;;2.36;100.00
33781;BME280;20097;50.832;19.100;2023-02-15T19:53:21;99253.16;;;2.26;100.00
33781;BME280;20097;50.832;19.100;2023-02-15T19:58:26;99257.38;;;2.27;100.00
33781;BME280;20097;50.832;19.100;2023-02-15T20:03:32;99248.19;;;2.23;100.00
33781;BME280;20097;50.832;19.100;2023-02-15T20:08:37;99239.94;;;2.18;100.00
33781;BME280;20097;50.832;19.100;2023-02-15T20:13:41;99238.72;;;2.23;100.00
33781;BME280;20097;50.832;19.100;2023-02-15T20:18:49;99241.19;;;2.25;100.00
33781;BME280;20097;50.832;19.100;2023-02-15T20:23:54;99232.03;;;2.21;100.00
33781;BME280;20097;50.832;19.100;2023-02-15T20:28:58;99236.25;;;2.22;100.00
33781;BME280;20097;50.832;19.100;2023-02-15T20:34:04;99244.16;;;2.19;100.00
33781;BME280;20097;50.832;19.100;2023-02-15T20:39:15;99236.66;;;2.16;100.00
33781;BME280;20097;50.832;19.100;2023-02-15T20:44:24;99236.66;;;2.16;100.00
33781;BME280;20097;50.832;19.100;2023-02-15T20:49:31;99226.53;;;2.13;100.00
33781;BME280;20097;50.832;19.100;2023-02-15T20:54:37;99224.06;;;2.11;100.00
33781;BME280;20097;50.832;19.100;2023-02-15T20:59:44;99221.75;;;2.07;100.00
33781;BME280;20097;50.832;19.100;2023-02-15T21:04:50;99221.97;;;2.04;100.00
33781;BME280;20097;50.832;19.100;2023-02-15T21:09:55;99222.91;;;2.03;100.00
33781;BME280;20097;50.832;19.100;2023-02-15T21:14:59;99225.69;;;2.00;100.00
33781;BME280;20097;50.832;19.100;2023-02-15T21:20:12;99216.47;;;1.96;100.00
33781;BME280;20097;50.832;19.100;2023-02-15T21:25:24;99217.41;;;1.95;100.00
33781;BME280;20097;50.832;19.100;2023-02-15T21:30:29;99214.31;;;1.90;100.00
33781;BME280;20097;50.832;19.100;2023-02-15T21:35:35;99217.72;;;1.90;100.00
33781;BME280;20097;50.832;19.100;2023-02-15T21:40:41;99208.81;;;1.82;100.00
33781;BME280;20097;50.832;19.100;2023-02-15T21:45:47;99207.97;;;1.81;100.00
33781;BME280;20097;50.832;19.100;2023-02-15T21:51:10;99196.25;;;1.77;100.00
33781;BME280;20097;50.832;19.100;2023-02-15T21:56:33;99193.22;;;1.71;100.00
33781;BME280;20097;50.832;19.100;2023-02-15T22:01:41;99195.91;;;1.69;100.00
33781;BME280;20097;50.832;19.100;2023-02-15T22:06:49;99199.38;;;1.68;100.00
33781;BME280;20097;50.832;19.100;2023-02-15T22:11:54;99198.75;;;1.65;100.00
33781;BME280;20097;50.832;19.100;2023-02-15T22:16:58;99192.50;;;1.55;100.00
33781;BME280;20097;50.832;19.100;2023-02-15T22:22:04;99197.22;;;1.48;100.00
33781;BME280;20097;50.832;19.100;2023-02-15T22:27:17;99192.25;;;1.45;100.00
33781;BME280;20097;50.832;19.100;2023-02-15T22:32:24;99190.81;;;1.41;100.00
33781;BME280;20097;50.832;19.100;2023-02-15T22:37:31;99181.72;;;1.35;100.00
33781;BME280;20097;50.832;19.100;2023-02-15T22:42:35;99181.81;;;1.34;100.00
33781;BME280;20097;50.832;19.100;2023-02-15T22:47:40;99180.47;;;1.28;100.00
33781;BME280;20097;50.832;19.100;2023-02-15T22:52:46;99170.19;;;1.28;100.00
33781;BME280;20097;50.832;19.100;2023-02-15T22:57:53;99172.31;;;1.22;100.00
33781;BME280;20097;50.832;19.100;2023-02-15T23:02:58;99169.78;;;1.20;100.00
33781;BME280;20097;50.832;19.100;2023-02-15T23:08:05;99159.72;;;1.17;100.00
33781;BME280;20097;50.832;19.100;2023-02-15T23:13:20;99155.16;;;1.08;100.00
33781;BME280;20097;50.832;19.100;2023-02-15T23:18:31;99146.59;;;1.08;100.00
33781;BME280;20097;50.832;19.100;2023-02-15T23:23:40;99152.31;;;0.99;100.00
33781;BME280;20097;50.832;19.100;2023-02-15T23:28:45;99136.06;;;0.98;100.00
33781;BME280;20097;50.832;19.100;2023-02-15T23:33:51;99137.88;;;0.96;100.00
33781;BME280;20097;50.832;19.100;2023-02-15T23:39:00;99138.06;;;0.93;100.00
33781;BME280;20097;50.832;19.100;2023-02-15T23:44:27;99139.00;;;0.92;100.00
33781;BME280;20097;50.832;19.100;2023-02-15T23:49:31;99132.19;;;0.91;100.00
33781;BME280;20097;50.832;19.100;2023-02-15T23:54:37;99123.03;;;0.87;100.00
33781;BME280;20097;50.832;19.100;2023-02-15T23:59:42;99119.00;;;0.83;100.00
